Time;durP1;ratioP1;P1;durP2;ratioP2;P2;SDS_P1;SDS_P2;PMS_P1;PMS_P2;Temp;Humidity;BMP_temperature;BMP_pressure;BME280_temperature;BME280_humidity;BME280_pressure;Samples;Min_cycle;Max_cycle;Signal;HPM_P1;HPM_P2
2021/07/29 00:01:30;;;;;;;6.88;3.40;;;;;;;;;;5028478;28;20201;-68
2021/07/29 00:03:56;;;;;;;7.13;3.70;;;;;;;;;;5017164;28;20194;-69
2021/07/29 00:06:21;;;;;;;9.07;3.78;;;;;;;;;;5032453;28;20273;-68
2021/07/29 00:08:46;;;;;;;7.18;3.78;;;;;;;;;;5012818;28;20552;-68
2021/07/29 00:11:18;;;;;;;7.40;3.67;;;;;;;;;;5025661;28;20236;-69
2021/07/29 00:13:43;;;;;;;10.60;3.65;;;;;;;;;;5011255;28;21049;-67
2021/07/29 00:16:08;;;;;;;9.32;4.00;;;;;;;;;;5027569;28;20182;-67
2021/07/29 00:21:18;;;;;;;6.68;3.60;;;;;;;;;;5024067;28;20247;-68
2021/07/29 00:23:47;;;;;;;4.57;3.00;;;;;;;;;;5020339;28;20190;-68
2021/07/29 00:26:12;;;;;;;4.57;3.20;;;;;;;;;;5028367;28;20175;-67
2021/07/29 00:28:37;;;;;;;4.18;3.40;;;;;;;;;;5024894;28;20190;-68
2021/07/29 00:31:03;;;;;;;7.82;3.33;;;;;;;;;;5017076;28;20206;-67
2021/07/29 00:33:28;;;;;;;10.55;4.07;;;;;;;;;;5023848;28;20201;-67
2021/07/29 00:35:53;;;;;;;5.13;3.25;;;;;;;;;;5016046;28;20265;-67
2021/07/29 00:38:18;;;;;;;8.05;4.00;;;;;;;;;;5014954;28;20198;-67
2021/07/29 00:40:44;;;;;;;7.35;4.47;;;;;;;;;;5020715;28;20188;-67
2021/07/29 00:43:09;;;;;;;7.18;4.75;;;;;;;;;;5020772;28;20186;-67
2021/07/29 00:45:34;;;;;;;8.63;4.38;;;;;;;;;;5017672;28;20598;-67
2021/07/29 00:48:00;;;;;;;8.80;3.75;;;;;;;;;;5020638;28;20568;-67
2021/07/29 00:50:25;;;;;;;6.57;4.10;;;;;;;;;;5018520;28;20695;-66
2021/07/29 00:52:51;;;;;;;8.23;4.30;;;;;;;;;;5026321;28;20194;-67
2021/07/29 00:55:20;;;;;;;8.60;3.53;;;;;;;;;;5014806;28;20178;-67
2021/07/29 00:57:45;;;;;;;7.93;3.70;;;;;;;;;;5022619;28;20218;-67
2021/07/29 01:00:11;;;;;;;7.03;3.67;;;;;;;;;;5023128;28;20201;-67
2021/07/29 01:02:37;;;;;;;7.68;3.58;;;;;;;;;;5016513;28;20217;-68
2021/07/29 01:05:04;;;;;;;10.57;4.13;;;;;;;;;;5027476;28;20283;-66
2021/07/29 01:07:30;;;;;;;6.72;3.58;;;;;;;;;;5011470;28;20183;-67
2021/07/29 01:09:55;;;;;;;5.13;3.20;;;;;;;;;;5026055;28;20209;-67
2021/07/29 01:12:20;;;;;;;3.95;3.45;;;;;;;;;;5011656;28;20218;-67
2021/07/29 01:14:46;;;;;;;5.93;2.85;;;;;;;;;;5026034;28;20658;-68
2021/07/29 01:17:11;;;;;;;5.32;3.00;;;;;;;;;;5013162;28;20244;-68
2021/07/29 01:19:37;;;;;;;5.93;2.97;;;;;;;;;;5033181;28;20185;-68
2021/07/29 01:22:03;;;;;;;7.32;3.25;;;;;;;;;;5014448;28;20194;-67
2021/07/29 01:24:28;;;;;;;6.97;3.20;;;;;;;;;;5026423;28;20691;-67
2021/07/29 01:26:54;;;;;;;6.80;2.83;;;;;;;;;;5015198;28;20186;-67
2021/07/29 01:29:19;;;;;;;4.88;2.90;;;;;;;;;;5028336;28;20247;-69
2021/07/29 01:31:45;;;;;;;6.97;2.97;;;;;;;;;;5017883;28;20186;-68
2021/07/29 01:34:11;;;;;;;9.05;2.83;;;;;;;;;;5012791;28;20357;-68
2021/07/29 01:36:36;;;;;;;3.67;2.35;;;;;;;;;;5025339;28;20201;-67
2021/07/29 01:39:02;;;;;;;7.00;3.17;;;;;;;;;;5015833;28;20194;-67
2021/07/29 01:41:27;;;;;;;7.65;2.60;;;;;;;;;;5019844;28;20238;-69
2021/07/29 01:43:53;;;;;;;9.05;2.60;;;;;;;;;;5017217;28;20649;-67
2021/07/29 01:46:18;;;;;;;7.00;2.72;;;;;;;;;;5020001;28;21009;-67
2021/07/29 01:48:43;;;;;;;5.70;2.75;;;;;;;;;;5016052;28;20262;-67
2021/07/29 01:51:09;;;;;;;5.53;3.03;;;;;;;;;;5019317;28;20360;-67
2021/07/29 01:53:34;;;;;;;7.78;2.30;;;;;;;;;;5016203;28;20183;-67
2021/07/29 01:55:59;;;;;;;8.45;2.40;;;;;;;;;;5019373;28;20238;-67
2021/07/29 01:58:25;;;;;;;6.80;2.65;;;;;;;;;;5013084;28;20272;-67
2021/07/29 02:00:53;;;;;;;10.38;3.10;;;;;;;;;;5023495;28;20198;-67
2021/07/29 02:03:18;;;;;;;7.78;2.42;;;;;;;;;;5032643;28;20197;-67
2021/07/29 02:05:44;;;;;;;6.53;2.60;;;;;;;;;;5013992;28;20195;-69
2021/07/29 02:08:09;;;;;;;5.90;2.33;;;;;;;;;;5025594;28;20564;-68
2021/07/29 02:10:35;;;;;;;7.68;2.42;;;;;;;;;;5011555;28;20677;-66
2021/07/29 02:13:01;;;;;;;7.15;2.85;;;;;;;;;;5031000;28;20530;-67
2021/07/29 02:15:27;;;;;;;6.00;2.67;;;;;;;;;;5010894;28;20195;-70
2021/07/29 02:17:56;;;;;;;6.65;2.60;;;;;;;;;;5022941;28;20185;-66
2021/07/29 02:20:21;;;;;;;9.23;2.67;;;;;;;;;;5011520;28;20273;-68
2021/07/29 02:22:47;;;;;;;8.35;2.55;;;;;;;;;;5027622;28;20260;-67
2021/07/29 02:25:12;;;;;;;6.55;2.17;;;;;;;;;;5009408;28;20201;-66
2021/07/29 02:27:38;;;;;;;8.35;3.28;;;;;;;;;;5025793;28;20194;-67
2021/07/29 02:30:04;;;;;;;4.63;2.20;;;;;;;;;;5015281;28;20209;-66
2021/07/29 02:32:29;;;;;;;8.63;2.85;;;;;;;;;;5030350;28;20490;-66
2021/07/29 02:34:55;;;;;;;7.00;2.42;;;;;;;;;;5025524;28;20198;-69
2021/07/29 02:37:21;;;;;;;10.40;2.72;;;;;;;;;;5017807;28;20189;-66
2021/07/29 02:39:47;;;;;;;7.05;2.67;;;;;;;;;;5024054;28;20189;-65
2021/07/29 02:42:12;;;;;;;8.48;2.38;;;;;;;;;;5022718;28;20200;-64
2021/07/29 02:44:38;;;;;;;7.00;3.13;;;;;;;;;;5025908;28;20628;-67
2021/07/29 02:47:03;;;;;;;19.98;2.90;;;;;;;;;;5024988;28;20645;-67
2021/07/29 02:49:29;;;;;;;7.90;2.30;;;;;;;;;;5021985;28;20641;-67
2021/07/29 02:51:54;;;;;;;9.93;2.17;;;;;;;;;;5014252;28;20245;-66
2021/07/29 02:54:19;;;;;;;4.60;2.10;;;;;;;;;;5022821;28;20197;-68
2021/07/29 02:56:45;;;;;;;12.63;2.65;;;;;;;;;;5023869;28;20225;-68
2021/07/29 02:59:10;;;;;;;8.93;2.70;;;;;;;;;;5024749;28;20210;-67
2021/07/29 03:01:35;;;;;;;6.07;2.25;;;;;;;;;;5024666;28;20170;-68
2021/07/29 03:04:01;;;;;;;7.05;2.25;;;;;;;;;;5020963;28;20178;-65
2021/07/29 03:06:26;;;;;;;7.53;2.33;;;;;;;;;;5028988;28;20776;-66
2021/07/29 03:08:52;;;;;;;12.38;3.17;;;;;;;;;;5017530;28;20243;-67
2021/07/29 03:11:17;;;;;;;6.28;2.60;;;;;;;;;;5024239;28;20503;-70
2021/07/29 03:13:42;;;;;;;6.55;2.50;;;;;;;;;;5016828;28;20213;-66
2021/07/29 03:16:08;;;;;;;6.65;2.63;;;;;;;;;;5014871;28;20241;-67
2021/07/29 03:18:33;;;;;;;8.55;2.80;;;;;;;;;;5013978;28;20271;-65
2021/07/29 03:20:59;;;;;;;7.38;2.63;;;;;;;;;;5019881;28;20194;-66
2021/07/29 03:23:26;;;;;;;6.20;2.42;;;;;;;;;;5014040;28;20735;-65
2021/07/29 03:25:53;;;;;;;9.25;2.83;;;;;;;;;;5026677;28;20183;-68
2021/07/29 03:28:19;;;;;;;8.73;2.78;;;;;;;;;;5014475;28;20717;-69
2021/07/29 03:30:45;;;;;;;8.82;2.05;;;;;;;;;;5029443;28;20337;-67
2021/07/29 03:33:10;;;;;;;10.68;3.03;;;;;;;;;;5014720;28;20281;-68
2021/07/29 03:35:37;;;;;;;6.13;2.33;;;;;;;;;;5031055;28;20178;-67
2021/07/29 03:38:03;;;;;;;6.43;2.13;;;;;;;;;;5022779;28;20544;-66
2021/07/29 03:40:28;;;;;;;12.77;3.10;;;;;;;;;;5019301;28;20236;-67
2021/07/29 03:42:53;;;;;;;9.40;2.55;;;;;;;;;;5022501;28;20190;-67
2021/07/29 03:45:19;;;;;;;9.18;2.60;;;;;;;;;;5023582;28;20198;-67
2021/07/29 03:47:44;;;;;;;8.73;2.58;;;;;;;;;;5023650;28;20289;-65
2021/07/29 03:50:09;;;;;;;10.45;3.47;;;;;;;;;;5021945;28;20261;-68
2021/07/29 03:52:36;;;;;;;11.25;2.30;;;;;;;;;;5023155;28;20623;-67
2021/07/29 03:55:02;;;;;;;10.90;2.83;;;;;;;;;;5020979;28;20198;-66
2021/07/29 03:57:27;;;;;;;9.35;2.78;;;;;;;;;;5022982;28;20232;-67
2021/07/29 03:59:52;;;;;;;6.35;2.17;;;;;;;;;;5016384;28;20248;-68
2021/07/29 04:02:18;;;;;;;11.90;2.40;;;;;;;;;;5021723;28;20240;-66
2021/07/29 04:04:43;;;;;;;10.95;3.03;;;;;;;;;;5021694;28;20645;-67
2021/07/29 04:07:08;;;;;;;10.02;2.45;;;;;;;;;;5023354;28;20193;-67
2021/07/29 04:09:36;;;;;;;7.93;2.80;;;;;;;;;;5029292;28;20208;-66
2021/07/29 04:12:02;;;;;;;12.38;2.85;;;;;;;;;;5016003;28;20186;-66
2021/07/29 04:14:27;;;;;;;8.07;2.63;;;;;;;;;;5030563;28;20182;-66
2021/07/29 04:16:54;;;;;;;15.15;2.92;;;;;;;;;;5017947;28;20174;-66
2021/07/29 04:19:20;;;;;;;11.07;2.53;;;;;;;;;;5024103;28;20183;-66
2021/07/29 04:21:45;;;;;;;10.43;2.55;;;;;;;;;;5015352;28;20186;-67
2021/07/29 04:24:10;;;;;;;14.18;3.45;;;;;;;;;;5022780;28;20194;-67
2021/07/29 04:26:36;;;;;;;11.65;2.80;;;;;;;;;;5014783;28;20174;-68
2021/07/29 04:29:01;;;;;;;11.23;3.13;;;;;;;;;;5024692;28;20186;-68
2021/07/29 04:31:26;;;;;;;12.05;3.13;;;;;;;;;;5015359;28;20250;-67
2021/07/29 04:33:52;;;;;;;9.35;2.88;;;;;;;;;;5025655;28;20654;-70
2021/07/29 04:36:18;;;;;;;10.10;3.13;;;;;;;;;;5017646;28;20740;-68
2021/07/29 04:38:44;;;;;;;10.00;3.42;;;;;;;;;;5019021;28;20292;-66
2021/07/29 04:41:09;;;;;;;8.68;3.30;;;;;;;;;;5021435;28;20297;-67
2021/07/29 04:43:35;;;;;;;13.27;3.25;;;;;;;;;;5014759;28;20270;-67
2021/07/29 04:46:03;;;;;;;10.63;3.15;;;;;;;;;;5021513;28;20281;-66
2021/07/29 04:48:30;;;;;;;15.15;3.20;;;;;;;;;;5017939;28;20284;-66
2021/07/29 04:51:01;;;;;;;12.02;3.25;;;;;;;;;;5024257;28;20673;-66
2021/07/29 04:53:26;;;;;;;21.70;4.40;;;;;;;;;;5015304;28;20240;-67
2021/07/29 04:55:51;;;;;;;12.73;3.40;;;;;;;;;;5025511;28;20225;-67
2021/07/29 04:58:17;;;;;;;12.82;3.25;;;;;;;;;;5016260;28;20185;-67
2021/07/29 05:00:42;;;;;;;12.45;3.00;;;;;;;;;;5026603;28;20300;-67
2021/07/29 05:03:07;;;;;;;9.18;2.75;;;;;;;;;;5021553;28;20704;-68
2021/07/29 05:05:32;;;;;;;9.75;2.65;;;;;;;;;;5026239;28;20619;-67
2021/07/29 05:07:58;;;;;;;9.02;2.90;;;;;;;;;;5027100;28;20197;-67
2021/07/29 05:10:23;;;;;;;11.27;3.45;;;;;;;;;;5023456;28;20209;-67
2021/07/29 05:12:48;;;;;;;12.43;3.10;;;;;;;;;;5026363;28;20225;-67
2021/07/29 05:15:14;;;;;;;15.35;3.45;;;;;;;;;;5018760;28;20196;-66
2021/07/29 05:17:39;;;;;;;9.13;3.10;;;;;;;;;;5028365;28;20288;-66
2021/07/29 05:20:05;;;;;;;7.00;2.80;;;;;;;;;;5014828;28;20187;-66
2021/07/29 05:22:30;;;;;;;11.52;3.28;;;;;;;;;;5022428;28;20198;-66
2021/07/29 05:24:56;;;;;;;10.35;3.53;;;;;;;;;;5018549;28;20541;-66
2021/07/29 05:27:21;;;;;;;14.52;3.67;;;;;;;;;;5021447;28;20554;-67
2021/07/29 05:29:46;;;;;;;11.25;3.25;;;;;;;;;;5017676;28;20213;-66
2021/07/29 05:32:11;;;;;;;13.25;3.42;;;;;;;;;;5019772;28;20322;-67
2021/07/29 05:34:37;;;;;;;10.82;3.28;;;;;;;;;;5019526;28;20604;-67
2021/07/29 05:37:04;;;;;;;14.27;3.85;;;;;;;;;;5022053;28;20678;-66
2021/07/29 05:39:33;;;;;;;12.02;3.55;;;;;;;;;;5015936;28;20271;-66
2021/07/29 05:41:58;;;;;;;12.80;3.53;;;;;;;;;;5021914;28;20209;-67
2021/07/29 05:44:23;;;;;;;11.85;4.30;;;;;;;;;;5023881;28;20539;-68
2021/07/29 05:46:49;;;;;;;9.85;3.78;;;;;;;;;;5012554;28;20671;-67
2021/07/29 05:49:14;;;;;;;9.10;3.97;;;;;;;;;;5019807;28;20245;-67
2021/07/29 05:51:39;;;;;;;13.05;4.15;;;;;;;;;;5030552;28;20212;-67
2021/07/29 05:54:05;;;;;;;10.07;3.90;;;;;;;;;;5030382;28;20182;-67
2021/07/29 05:56:30;;;;;;;9.18;3.65;;;;;;;;;;5010955;28;20256;-67
2021/07/29 05:58:55;;;;;;;12.90;4.15;;;;;;;;;;5018904;28;20189;-68
2021/07/29 06:01:22;;;;;;;12.68;4.20;;;;;;;;;;5014723;28;20188;-68
2021/07/29 06:03:48;;;;;;;11.52;4.13;;;;;;;;;;5025069;28;20293;-66
2021/07/29 06:06:13;;;;;;;10.13;3.92;;;;;;;;;;5014302;28;20272;-67
2021/07/29 06:08:38;;;;;;;13.73;4.30;;;;;;;;;;5023963;28;20190;-67
2021/07/29 06:11:04;;;;;;;11.43;3.70;;;;;;;;;;5019694;28;20205;-68
2021/07/29 06:13:29;;;;;;;13.30;4.00;;;;;;;;;;5021295;28;20213;-67
2021/07/29 06:15:55;;;;;;;12.15;3.50;;;;;;;;;;5024138;28;20208;-66
2021/07/29 06:18:23;;;;;;;11.73;3.72;;;;;;;;;;5010289;28;20263;-67
2021/07/29 06:20:49;;;;;;;12.45;4.07;;;;;;;;;;5020158;28;20179;-68
2021/07/29 06:23:14;;;;;;;9.63;3.63;;;;;;;;;;5007940;28;20202;-68
2021/07/29 06:25:40;;;;;;;13.05;4.05;;;;;;;;;;5025382;28;20185;-67
2021/07/29 06:28:11;;;;;;;15.93;4.03;;;;;;;;;;5014258;28;20249;-67
2021/07/29 06:30:37;;;;;;;10.77;3.28;;;;;;;;;;5026051;28;20296;-67
2021/07/29 06:33:02;;;;;;;10.60;3.72;;;;;;;;;;5009816;28;20780;-67
2021/07/29 06:35:28;;;;;;;14.50;3.05;;;;;;;;;;5024958;28;20177;-67
2021/07/29 06:37:54;;;;;;;16.23;3.55;;;;;;;;;;5018262;28;20261;-68
2021/07/29 06:40:20;;;;;;;13.50;3.15;;;;;;;;;;5023607;28;20562;-67
2021/07/29 06:42:45;;;;;;;12.93;3.60;;;;;;;;;;5018600;28;20182;-68
2021/07/29 06:45:11;;;;;;;17.95;3.60;;;;;;;;;;5023566;28;20200;-67
2021/07/29 06:47:36;;;;;;;12.77;3.45;;;;;;;;;;5025741;28;20194;-69
2021/07/29 06:50:04;;;;;;;7.55;2.70;;;;;;;;;;5017597;28;20225;-67
2021/07/29 06:52:29;;;;;;;12.25;3.33;;;;;;;;;;5013465;28;20178;-69
2021/07/29 06:54:55;;;;;;;14.98;3.30;;;;;;;;;;5017500;28;20188;-67
2021/07/29 06:57:20;;;;;;;9.27;2.92;;;;;;;;;;5024400;28;20242;-67
2021/07/29 06:59:46;;;;;;;14.02;3.58;;;;;;;;;;5018718;28;20987;-67
2021/07/29 07:02:11;;;;;;;12.70;3.38;;;;;;;;;;5021560;28;20197;-66
2021/07/29 07:04:36;;;;;;;11.93;3.40;;;;;;;;;;5011779;28;20187;-68
2021/07/29 07:07:02;;;;;;;13.65;3.53;;;;;;;;;;5018931;28;20666;-70
2021/07/29 07:09:30;;;;;;;9.38;3.00;;;;;;;;;;5015765;28;20190;-68
2021/07/29 07:11:55;;;;;;;13.70;3.40;;;;;;;;;;5018287;28;20560;-68
2021/07/29 07:14:20;;;;;;;11.00;2.67;;;;;;;;;;5018859;28;20196;-67
2021/07/29 07:16:46;;;;;;;12.43;3.60;;;;;;;;;;5020666;28;20201;-67
2021/07/29 07:19:11;;;;;;;9.45;3.08;;;;;;;;;;5023671;28;20186;-67
2021/07/29 07:21:38;;;;;;;8.18;2.70;;;;;;;;;;5019417;28;20638;-67
2021/07/29 07:24:04;;;;;;;10.60;2.83;;;;;;;;;;5022014;28;20194;-67
2021/07/29 07:26:29;;;;;;;13.40;3.70;;;;;;;;;;5015034;28;20186;-67
2021/07/29 07:28:55;;;;;;;10.85;3.28;;;;;;;;;;5028826;28;20186;-67
2021/07/29 07:31:20;;;;;;;12.00;2.70;;;;;;;;;;5010565;28;20555;-67
2021/07/29 07:33:46;;;;;;;9.82;2.88;;;;;;;;;;5030114;28;20178;-67
2021/07/29 07:36:13;;;;;;;8.80;2.95;;;;;;;;;;5016601;28;20198;-66
2021/07/29 07:38:39;;;;;;;11.85;3.30;;;;;;;;;;5031320;28;20283;-67
2021/07/29 07:41:05;;;;;;;12.45;3.15;;;;;;;;;;5020200;28;20280;-66
2021/07/29 07:43:31;;;;;;;9.40;3.53;;;;;;;;;;5023852;28;20583;-67
2021/07/29 07:45:57;;;;;;;10.15;2.95;;;;;;;;;;5014511;28;20197;-67
2021/07/29 07:48:22;;;;;;;11.43;2.95;;;;;;;;;;5027321;28;20179;-67
2021/07/29 07:50:48;;;;;;;9.60;2.90;;;;;;;;;;5024698;28;20214;-71
2021/07/29 07:53:13;;;;;;;7.32;2.70;;;;;;;;;;5016484;28;20187;-68
2021/07/29 07:55:38;;;;;;;13.77;2.95;;;;;;;;;;5023660;28;20182;-66
2021/07/29 07:58:03;;;;;;;13.10;3.33;;;;;;;;;;5021689;28;20236;-70
2021/07/29 08:00:29;;;;;;;10.93;3.05;;;;;;;;;;5025551;28;20199;-68
2021/07/29 08:02:54;;;;;;;14.75;2.95;;;;;;;;;;5021075;28;20186;-66
2021/07/29 08:05:20;;;;;;;11.60;2.92;;;;;;;;;;5021927;28;20194;-67
2021/07/29 08:07:45;;;;;;;8.15;3.22;;;;;;;;;;5018515;28;20193;-66
2021/07/29 08:10:11;;;;;;;9.05;2.50;;;;;;;;;;5022222;28;20614;-69
2021/07/29 08:12:37;;;;;;;14.05;2.65;;;;;;;;;;5024147;28;20190;-66
2021/07/29 08:15:03;;;;;;;12.48;3.50;;;;;;;;;;5023470;28;20648;-69
2021/07/29 08:17:28;;;;;;;9.43;2.47;;;;;;;;;;5028447;28;20266;-67
2021/07/29 08:19:54;;;;;;;13.85;3.10;;;;;;;;;;5017363;28;20178;-66
2021/07/29 08:22:19;;;;;;;9.20;2.30;;;;;;;;;;5035657;28;20185;-66
2021/07/29 08:24:44;;;;;;;15.07;3.20;;;;;;;;;;5013008;28;20190;-66
2021/07/29 08:27:10;;;;;;;10.65;2.92;;;;;;;;;;5022547;28;20211;-69
2021/07/29 08:29:35;;;;;;;9.98;2.50;;;;;;;;;;5018931;28;20209;-67
2021/07/29 08:32:01;;;;;;;9.90;2.65;;;;;;;;;;5030985;28;20536;-67
2021/07/29 08:34:26;;;;;;;7.65;2.40;;;;;;;;;;5010288;28;20186;-68
2021/07/29 08:36:52;;;;;;;11.85;2.88;;;;;;;;;;5024427;28;20185;-67
2021/07/29 08:39:17;;;;;;;5.65;2.17;;;;;;;;;;5016991;28;20190;-70
2021/07/29 08:41:43;;;;;;;6.32;1.90;;;;;;;;;;5020923;28;20267;-68
2021/07/29 08:44:08;;;;;;;9.77;2.60;;;;;;;;;;5016919;28;20202;-67
2021/07/29 08:46:35;;;;;;;5.47;1.55;;;;;;;;;;5031024;28;20264;-67
2021/07/29 08:49:02;;;;;;;7.63;2.47;;;;;;;;;;5026343;28;20215;-67
2021/07/29 08:51:28;;;;;;;10.13;2.47;;;;;;;;;;5013776;28;20237;-68
2021/07/29 08:53:57;;;;;;;6.72;1.90;;;;;;;;;;5026529;28;20598;-68
2021/07/29 08:56:25;;;;;;;8.82;2.22;;;;;;;;;;5011509;28;20702;-66
2021/07/29 08:58:51;;;;;;;11.73;2.40;;;;;;;;;;5025482;28;20220;-67
2021/07/29 09:01:17;;;;;;;8.27;2.50;;;;;;;;;;5014989;28;20182;-66
2021/07/29 09:03:44;;;;;;;12.40;2.05;;;;;;;;;;5019142;28;20260;-68
2021/07/29 09:06:11;;;;;;;11.95;2.40;;;;;;;;;;5018828;28;20265;-67
2021/07/29 09:08:44;;;;;;;10.15;2.58;;;;;;;;;;5019676;28;20222;-67
2021/07/29 09:11:33;;;;;;;10.55;2.80;;;;;;;;;;5015695;28;20252;-66
2021/07/29 09:14:04;;;;;;;10.27;2.53;;;;;;;;;;5017969;28;20194;-68
2021/07/29 09:16:37;;;;;;;8.82;2.10;;;;;;;;;;5024482;28;20194;-67
2021/07/29 09:19:02;;;;;;;6.88;2.20;;;;;;;;;;5021138;28;20268;-68
2021/07/29 09:21:28;;;;;;;6.13;2.17;;;;;;;;;;5017951;28;20201;-67
2021/07/29 09:24:22;;;;;;;12.00;3.20;;;;;;;;;;5020984;28;20552;-66
2021/07/29 09:26:56;;;;;;;8.90;2.50;;;;;;;;;;5018437;28;20209;-67
2021/07/29 09:29:22;;;;;;;12.43;2.53;;;;;;;;;;5021539;28;20244;-66
2021/07/29 09:31:48;;;;;;;8.45;2.20;;;;;;;;;;5013003;28;24446;-66
2021/07/29 09:34:13;;;;;;;11.65;2.20;;;;;;;;;;5021511;28;20187;-68
2021/07/29 09:36:39;;;;;;;7.40;2.55;;;;;;;;;;5023857;28;20181;-67
2021/07/29 09:39:20;;;;;;;11.40;2.38;;;;;;;;;;5014704;28;20622;-68
2021/07/29 09:41:48;;;;;;;10.77;2.35;;;;;;;;;;5019450;28;20182;-68
2021/07/29 09:44:14;;;;;;;7.50;2.33;;;;;;;;;;5015102;28;20251;-68
2021/07/29 09:46:40;;;;;;;11.85;2.50;;;;;;;;;;5018772;28;20658;-68
2021/07/29 09:49:06;;;;;;;8.02;2.65;;;;;;;;;;5018979;28;20555;-69
2021/07/29 09:51:32;;;;;;;7.72;1.98;;;;;;;;;;5025565;28;20239;-67
2021/07/29 09:53:58;;;;;;;11.23;2.75;;;;;;;;;;5023886;28;20213;-68
2021/07/29 09:56:23;;;;;;;9.02;2.20;;;;;;;;;;5024260;28;20350;-68
2021/07/29 09:58:48;;;;;;;10.52;2.40;;;;;;;;;;5020705;28;20554;-67
2021/07/29 10:01:17;;;;;;;8.10;2.15;;;;;;;;;;5022532;28;20190;-67
2021/07/29 10:03:47;;;;;;;11.40;2.33;;;;;;;;;;5016973;28;20193;-68
2021/07/29 10:06:18;;;;;;;8.73;2.13;;;;;;;;;;5017036;28;20213;-67
2021/07/29 10:08:50;;;;;;;5.00;1.85;;;;;;;;;;5012540;28;20530;-68
2021/07/29 10:11:20;;;;;;;7.82;2.08;;;;;;;;;;5016523;28;20206;-68
2021/07/29 10:13:45;;;;;;;7.70;2.15;;;;;;;;;;5028005;28;20560;-68
2021/07/29 10:16:38;;;;;;;5.90;1.65;;;;;;;;;;5017995;28;20178;-67
2021/07/29 10:19:05;;;;;;;5.15;1.70;;;;;;;;;;5015749;28;20192;-68
2021/07/29 10:21:32;;;;;;;10.32;2.42;;;;;;;;;;5019257;28;20187;-69
2021/07/29 10:24:00;;;;;;;11.98;1.88;;;;;;;;;;5021474;28;20183;-69
2021/07/29 10:26:26;;;;;;;8.00;2.38;;;;;;;;;;5013350;28;20190;-71
2021/07/29 10:28:52;;;;;;;8.95;2.40;;;;;;;;;;5021311;28;20189;-71
2021/07/29 10:31:19;;;;;;;8.43;2.15;;;;;;;;;;5014264;28;20259;-70
2021/07/29 10:33:46;;;;;;;7.90;2.72;;;;;;;;;;5028163;28;20209;-69
2021/07/29 10:36:46;;;;;;;11.05;2.85;;;;;;;;;;5011334;28;20285;-70
2021/07/29 10:39:13;;;;;;;11.13;2.60;;;;;;;;;;5024776;28;20194;-69
2021/07/29 10:41:43;;;;;;;10.02;3.00;;;;;;;;;;5016743;28;20193;-69
2021/07/29 10:44:29;;;;;;;9.65;2.47;;;;;;;;;;5023695;28;20640;-71
2021/07/29 10:46:55;;;;;;;9.40;2.50;;;;;;;;;;5020537;28;20211;-69
2021/07/29 10:49:20;;;;;;;8.55;2.00;;;;;;;;;;5024863;28;20187;-70
2021/07/29 10:52:04;;;;;;;8.68;2.58;;;;;;;;;;5019576;28;20233;-70
2021/07/29 10:54:30;;;;;;;8.30;2.17;;;;;;;;;;5018131;28;20202;-71
2021/07/29 10:56:56;;;;;;;8.23;2.10;;;;;;;;;;5026546;28;20573;-69
2021/07/29 10:59:21;;;;;;;6.93;2.08;;;;;;;;;;5024492;28;20221;-71
2021/07/29 11:01:47;;;;;;;9.07;2.28;;;;;;;;;;5022439;28;20190;-69
2021/07/29 11:04:13;;;;;;;7.97;2.17;;;;;;;;;;5025018;28;20190;-68
2021/07/29 11:06:40;;;;;;;11.57;2.30;;;;;;;;;;5020022;28;20641;-69
2021/07/29 11:09:13;;;;;;;4.47;1.67;;;;;;;;;;5024407;28;20196;-68
2021/07/29 11:11:38;;;;;;;10.52;2.33;;;;;;;;;;5021749;28;20202;-68
2021/07/29 11:14:04;;;;;;;7.53;1.83;;;;;;;;;;5026665;28;20197;-69
2021/07/29 11:16:31;;;;;;;7.97;2.38;;;;;;;;;;5029096;28;20540;-68
2021/07/29 11:19:01;;;;;;;6.35;1.60;;;;;;;;;;5021287;28;20277;-70
2021/07/29 11:21:26;;;;;;;8.07;2.17;;;;;;;;;;5030015;28;20185;-70
2021/07/29 11:23:52;;;;;;;6.28;2.08;;;;;;;;;;5015541;28;20182;-69
2021/07/29 11:26:17;;;;;;;8.90;2.03;;;;;;;;;;5023831;28;20213;-70
2021/07/29 11:28:43;;;;;;;8.23;2.47;;;;;;;;;;5013235;28;20540;-70
2021/07/29 11:31:08;;;;;;;9.20;2.42;;;;;;;;;;5027714;28;20198;-70
2021/07/29 11:33:34;;;;;;;6.78;2.20;;;;;;;;;;5019027;28;20198;-70
2021/07/29 11:36:08;;;;;;;7.18;2.28;;;;;;;;;;5024854;28;20186;-69
2021/07/29 11:38:33;;;;;;;7.30;1.98;;;;;;;;;;5009108;28;20209;-70
2021/07/29 11:41:00;;;;;;;15.23;2.40;;;;;;;;;;5035221;28;20178;-70
2021/07/29 11:43:28;;;;;;;7.97;1.85;;;;;;;;;;5018392;28;20260;-68
2021/07/29 11:46:10;;;;;;;7.93;2.55;;;;;;;;;;5032465;28;20186;-70
2021/07/29 11:48:36;;;;;;;5.75;2.00;;;;;;;;;;5017414;28;20205;-68
2021/07/29 11:51:12;;;;;;;6.47;2.05;;;;;;;;;;5032101;28;20190;-69
2021/07/29 11:53:39;;;;;;;8.45;2.13;;;;;;;;;;5012818;28;20268;-69
2021/07/29 11:56:07;;;;;;;7.63;1.77;;;;;;;;;;5039505;28;20226;-68
2021/07/29 11:58:33;;;;;;;7.47;2.00;;;;;;;;;;5023990;28;20194;-68
2021/07/29 12:00:58;;;;;;;8.50;2.30;;;;;;;;;;5020633;28;20225;-71
2021/07/29 12:03:31;;;;;;;16.77;2.58;;;;;;;;;;5020356;28;20193;-68
2021/07/29 12:05:58;;;;;;;5.75;2.28;;;;;;;;;;5019843;28;20273;-69
2021/07/29 12:08:24;;;;;;;9.60;2.10;;;;;;;;;;5024253;28;20537;-68
2021/07/29 12:10:55;;;;;;;5.88;1.75;;;;;;;;;;5018617;28;20217;-69
2021/07/29 12:13:23;;;;;;;4.85;1.85;;;;;;;;;;5020134;28;20205;-69
2021/07/29 12:15:53;;;;;;;6.75;2.45;;;;;;;;;;5023154;28;20193;-72
2021/07/29 12:18:22;;;;;;;6.70;2.13;;;;;;;;;;5055692;28;20696;-71
2021/07/29 12:20:52;;;;;;;6.50;2.22;;;;;;;;;;5016807;28;20198;-69
2021/07/29 12:23:18;;;;;;;8.77;2.00;;;;;;;;;;5025298;28;20193;-68
2021/07/29 12:25:45;;;;;;;7.70;2.10;;;;;;;;;;5020605;28;20198;-70
2021/07/29 12:28:11;;;;;;;7.25;2.15;;;;;;;;;;5028780;28;20205;-71
2021/07/29 12:30:42;;;;;;;6.88;2.08;;;;;;;;;;5011857;28;20229;-71
2021/07/29 12:33:10;;;;;;;7.78;2.00;;;;;;;;;;5028666;28;20255;-71
2021/07/29 12:35:40;;;;;;;7.28;2.40;;;;;;;;;;5017581;28;20210;-70
2021/07/29 12:38:07;;;;;;;6.22;2.50;;;;;;;;;;5038387;28;20646;-70
2021/07/29 12:40:32;;;;;;;10.13;2.25;;;;;;;;;;5022226;28;20190;-69
2021/07/29 12:43:20;;;;;;;8.57;2.22;;;;;;;;;;5018646;28;20202;-69
2021/07/29 12:45:52;;;;;;;6.53;2.00;;;;;;;;;;5017602;28;20585;-71
2021/07/29 12:48:17;;;;;;;8.38;2.33;;;;;;;;;;5022448;28;20189;-70
2021/07/29 12:50:42;;;;;;;9.88;2.67;;;;;;;;;;5022795;28;20603;-68
2021/07/29 12:53:12;;;;;;;9.27;2.70;;;;;;;;;;5024896;28;20190;-70
2021/07/29 12:55:39;;;;;;;12.93;2.58;;;;;;;;;;5026709;28;20190;-70
2021/07/29 12:58:07;;;;;;;8.93;2.72;;;;;;;;;;5017629;28;20697;-68
2021/07/29 13:00:32;;;;;;;8.73;3.08;;;;;;;;;;5020934;28;20202;-70
2021/07/29 13:02:58;;;;;;;10.45;2.97;;;;;;;;;;5022030;28;20588;-70
2021/07/29 13:05:23;;;;;;;11.63;3.05;;;;;;;;;;5020381;28;20194;-69
2021/07/29 13:07:49;;;;;;;11.35;3.05;;;;;;;;;;5020343;28;20221;-69
2021/07/29 13:10:14;;;;;;;5.65;2.58;;;;;;;;;;5022671;28;20252;-70
2021/07/29 13:12:39;;;;;;;10.32;2.63;;;;;;;;;;5023318;28;21939;-70
2021/07/29 13:15:06;;;;;;;8.68;3.13;;;;;;;;;;5018246;28;20494;-73
2021/07/29 13:17:32;;;;;;;8.50;2.65;;;;;;;;;;5026960;28;20269;-70
2021/07/29 13:20:00;;;;;;;8.43;2.63;;;;;;;;;;5013629;28;20339;-71
2021/07/29 13:22:28;;;;;;;9.50;2.50;;;;;;;;;;5029784;28;20233;-69
2021/07/29 13:24:55;;;;;;;7.28;1.95;;;;;;;;;;5016014;28;20187;-70
2021/07/29 13:27:21;;;;;;;6.50;2.38;;;;;;;;;;5025963;28;20186;-69
2021/07/29 13:29:46;;;;;;;11.80;2.53;;;;;;;;;;5017652;28;20197;-70
2021/07/29 13:32:12;;;;;;;11.45;3.03;;;;;;;;;;5020844;28;20178;-69
2021/07/29 13:34:38;;;;;;;7.35;2.00;;;;;;;;;;5013809;28;20198;-70
2021/07/29 13:37:04;;;;;;;7.68;2.65;;;;;;;;;;5025966;28;20257;-69
2021/07/29 13:39:29;;;;;;;8.13;2.25;;;;;;;;;;5015330;28;20193;-70
2021/07/29 13:41:54;;;;;;;10.38;2.25;;;;;;;;;;5018853;28;20179;-68
2021/07/29 13:44:21;;;;;;;10.60;2.67;;;;;;;;;;5012092;28;20190;-70
2021/07/29 13:46:47;;;;;;;8.80;2.08;;;;;;;;;;5029251;28;20185;-70
2021/07/29 13:49:12;;;;;;;7.60;2.40;;;;;;;;;;5015615;28;20272;-69
2021/07/29 13:51:38;;;;;;;9.10;2.70;;;;;;;;;;5027355;28;20310;-71
2021/07/29 13:54:03;;;;;;;8.40;2.60;;;;;;;;;;5016800;28;20191;-71
2021/07/29 13:56:28;;;;;;;8.70;2.72;;;;;;;;;;5018158;28;20240;-70
2021/07/29 13:58:54;;;;;;;8.60;2.65;;;;;;;;;;5022466;28;20649;-68
2021/07/29 14:01:22;;;;;;;7.95;2.80;;;;;;;;;;5012770;28;20182;-70
2021/07/29 14:03:47;;;;;;;8.45;2.40;;;;;;;;;;5019040;28;20650;-71
2021/07/29 14:06:12;;;;;;;8.38;2.50;;;;;;;;;;5020853;28;20177;-70
2021/07/29 14:08:38;;;;;;;6.13;2.20;;;;;;;;;;5021767;28;20248;-70
2021/07/29 14:11:03;;;;;;;7.95;2.22;;;;;;;;;;5020533;28;20710;-70
2021/07/29 14:13:31;;;;;;;6.90;2.22;;;;;;;;;;5021175;28;20190;-70
2021/07/29 14:15:56;;;;;;;6.82;1.85;;;;;;;;;;5024911;28;20192;-70
2021/07/29 14:18:21;;;;;;;8.93;2.67;;;;;;;;;;5023191;28;20619;-70
2021/07/29 14:20:58;;;;;;;10.30;2.30;;;;;;;;;;5019098;28;20704;-69
2021/07/29 14:23:23;;;;;;;7.28;2.45;;;;;;;;;;5019395;28;20297;-70
2021/07/29 14:25:49;;;;;;;10.02;2.90;;;;;;;;;;5019605;28;20202;-69
2021/07/29 14:28:14;;;;;;;9.35;2.75;;;;;;;;;;5013070;28;20190;-70
2021/07/29 14:30:40;;;;;;;9.15;2.80;;;;;;;;;;5028050;28;20210;-70
2021/07/29 14:33:06;;;;;;;6.90;2.22;;;;;;;;;;5018023;28;20197;-70
2021/07/29 14:35:34;;;;;;;6.50;2.22;;;;;;;;;;5020661;28;20711;-69
2021/07/29 14:38:02;;;;;;;10.70;2.50;;;;;;;;;;5011156;28;20183;-72